Midland City, AL

5:33 AM CDT on August 01, 2014 (GMT -0500)
Dothan Regional (KDHN) Elev 400 ft | 31.32 °N, 85.45 °W | Change Station

Current weather conditions updated 40 minutes ago

Clear
Clear
68 °F
Feels Like 68 °F
N
0
Wind Variable Wind from North

Today is forecast to be Warmer than yesterday.

Today
High -- | Low -- °F
--% Chance of Precip.
Yesterday
High -- | Low -- °F
Precip. -- in
5:58 AM 7:37 PM
Waxing Crescent, 25% visible
Pressure 30.00 in
Visibility 7.0 miles
Clouds Clear
Dew Point 66 °F
Humidity 93%
Rainfall 0.00 in
Snow Depth Not available.
UV 0 out of 12
Pollen 5.60 out of 12
Air Quality Not available.
Flu Activity Not available.
METAR KDHN 010953Z AUTO 00000KT 7SM CLR 20/19 A3001 RMK AO2 SLP157 T02000189 $

More Conditions Fewer Conditions

Pressure 30.00 in
Visibility 7.0 miles
Clouds Clear
Dew Point 66 °F
Humidity 93%
Rainfall 0.00 in
Snow Depth Not available.
UV 0 out of 12
Pollen 5.60 out of 12
Air Quality Not available.
Flu Activity Not available.
METAR KDHN 010953Z AUTO 00000KT 7SM CLR 20/19 A3001 RMK AO2 SLP157 T02000189 $

More Conditions Fewer Conditions

10-Day Weather Forecast

Almanac

Astronomy

Aug. 01, 2014 Rise Set
Actual Time 5:58 AM CDT 7:37 PM CDT
Civil Twilight 5:32 AM CDT 8:03 PM CDT
Nautical Twilight 5:00 AM CDT 8:35 PM CDT
Astronomical Twilight 4:26 AM CDT 9:08 PM CDT
Moon 10:57 AM CDT 10:46 PM CDT
Length of Visible Light 14h 31m
Length of Day
13h 39m
Tomorrow will be 1m 25s shorter.
Waxing Crescent, 25% of the Moon is Illuminated
Today
Waxing Crescent
Aug 3
First Quarter
Aug 10
Full
Aug 17
Last Quarter
Aug 25
New

Today's Extremes

State Highs State Lows

Community

WunderPhotos

Upload Photos

1,739,534 photos uploaded!

Nearby

Snow Depth

Station Depth Elevation
No new snow has been reported.

Earthquake Activity

City Distance Mag. Time & Date
No recent earthquake activity has been reported nearby.
Minimum magnitude displayed is 2.5.

Coastal Water Temperatures

Place Temperature
No Stations Reporting

Nearby Weather Stations

Station Location Temp. Dew Point Humidity Wind Precip. Elev Updated Type
Dothan, AL 68.6 °F 67 °F 95% North  at  0.0 mph 0.00 in / hr 300 ft 5:32 AM CDT Rapid Fire
South Dothan, Dothan, AL 64.5 °F 64 °F 99% North  at  0.0 mph - / hr 305 ft 5:23 AM CDT Normal
Asbury, Ozark, AL 67.9 °F 66 °F 95% WNW  at  0.0 mph 0.00 in / hr 367 ft 5:32 AM CDT Normal
County Rd. 85, Hartford, AL 68.9 °F 62 °F 80% ENE  at  0.0 mph 0.00 in / hr 290 ft 5:33 AM CDT Rapid Fire
Rolling Pines, Enterprise, AL 64.2 °F 64 °F 99% SSE  at  0.0 mph - / hr 256 ft 5:20 AM CDT Normal
Cotton Creek, Enterprise, AL 68.0 °F 66 °F 93% North  at  0.0 mph 0.00 in / hr 358 ft 5:33 AM CDT Rapid Fire

Show More Stations Show Fewer Stations